sensor_id;sensor_type;location;lat;lon;timestamp;P1;durP1;ratioP1;P2;durP2;ratioP2
5805;SDS011;2929;50.810;8.342;2023-04-03T00:00:11;4.20;;;1.53;;
5805;SDS011;2929;50.810;8.342;2023-04-03T00:02:39;5.33;;;1.83;;
5805;SDS011;2929;50.810;8.342;2023-04-03T00:05:06;3.20;;;1.13;;
5805;SDS011;2929;50.810;8.342;2023-04-03T00:07:34;2.50;;;1.10;;
5805;SDS011;2929;50.810;8.342;2023-04-03T00:10:00;2.70;;;1.40;;
5805;SDS011;2929;50.810;8.342;2023-04-03T00:12:28;2.00;;;1.33;;
5805;SDS011;2929;50.810;8.342;2023-04-03T00:14:55;1.33;;;1.10;;
5805;SDS011;2929;50.810;8.342;2023-04-03T00:17:23;1.63;;;1.30;;
5805;SDS011;2929;50.810;8.342;2023-04-03T00:19:50;2.77;;;1.00;;
5805;SDS011;2929;50.810;8.342;2023-04-03T00:22:17;3.90;;;1.20;;
5805;SDS011;2929;50.810;8.342;2023-04-03T00:24:44;4.23;;;1.03;;
5805;SDS011;2929;50.810;8.342;2023-04-03T00:27:11;4.47;;;1.30;;
5805;SDS011;2929;50.810;8.342;2023-04-03T00:29:38;2.20;;;1.00;;
5805;SDS011;2929;50.810;8.342;2023-04-03T00:32:05;2.93;;;1.40;;
5805;SDS011;2929;50.810;8.342;2023-04-03T00:34:33;5.40;;;1.43;;
5805;SDS011;2929;50.810;8.342;2023-04-03T00:37:00;2.17;;;1.23;;
5805;SDS011;2929;50.810;8.342;2023-04-03T00:39:28;2.37;;;1.10;;
5805;SDS011;2929;50.810;8.342;2023-04-03T00:41:55;3.63;;;1.57;;
5805;SDS011;2929;50.810;8.342;2023-04-03T00:44:22;0.93;;;0.73;;
5805;SDS011;2929;50.810;8.342;2023-04-03T00:47:27;3.70;;;1.20;;
5805;SDS011;2929;50.810;8.342;2023-04-03T00:49:57;2.53;;;0.83;;
5805;SDS011;2929;50.810;8.342;2023-04-03T00:52:25;1.43;;;0.80;;
5805;SDS011;2929;50.810;8.342;2023-04-03T00:54:57;3.93;;;1.10;;
5805;SDS011;2929;50.810;8.342;2023-04-03T00:57:26;1.10;;;0.87;;
5805;SDS011;2929;50.810;8.342;2023-04-03T00:59:54;6.00;;;1.40;;
5805;SDS011;2929;50.810;8.342;2023-04-03T01:02:26;1.30;;;1.10;;
5805;SDS011;2929;50.810;8.342;2023-04-03T01:04:53;1.80;;;0.90;;
5805;SDS011;2929;50.810;8.342;2023-04-03T01:07:23;1.10;;;1.00;;
5805;SDS011;2929;50.810;8.342;2023-04-03T01:09:53;1.83;;;1.03;;
5805;SDS011;2929;50.810;8.342;2023-04-03T01:12:24;3.03;;;0.90;;
5805;SDS011;2929;50.810;8.342;2023-04-03T01:14:54;1.43;;;1.10;;
5805;SDS011;2929;50.810;8.342;2023-04-03T01:17:29;4.60;;;2.43;;
5805;SDS011;2929;50.810;8.342;2023-04-03T01:20:02;2.47;;;2.10;;
5805;SDS011;2929;50.810;8.342;2023-04-03T01:23:05;3.90;;;1.13;;
5805;SDS011;2929;50.810;8.342;2023-04-03T01:25:40;4.20;;;0.90;;
5805;SDS011;2929;50.810;8.342;2023-04-03T01:28:09;3.83;;;1.00;;
5805;SDS011;2929;50.810;8.342;2023-04-03T01:30:39;4.53;;;1.60;;
5805;SDS011;2929;50.810;8.342;2023-04-03T01:33:12;1.23;;;1.13;;
5805;SDS011;2929;50.810;8.342;2023-04-03T01:35:40;1.27;;;0.83;;
5805;SDS011;2929;50.810;8.342;2023-04-03T01:38:10;4.63;;;1.33;;
5805;SDS011;2929;50.810;8.342;2023-04-03T01:40:37;1.47;;;0.97;;
5805;SDS011;2929;50.810;8.342;2023-04-03T01:43:04;3.30;;;1.17;;
5805;SDS011;2929;50.810;8.342;2023-04-03T01:45:31;3.27;;;1.30;;
5805;SDS011;2929;50.810;8.342;2023-04-03T01:47:59;1.40;;;1.10;;
5805;SDS011;2929;50.810;8.342;2023-04-03T01:50:27;4.30;;;1.80;;
5805;SDS011;2929;50.810;8.342;2023-04-03T01:52:55;2.30;;;1.20;;
5805;SDS011;2929;50.810;8.342;2023-04-03T01:55:22;3.10;;;1.10;;
5805;SDS011;2929;50.810;8.342;2023-04-03T01:57:52;1.93;;;1.00;;
5805;SDS011;2929;50.810;8.342;2023-04-03T02:00:19;8.83;;;1.00;;
5805;SDS011;2929;50.810;8.342;2023-04-03T02:02:46;3.13;;;1.00;;
5805;SDS011;2929;50.810;8.342;2023-04-03T02:05:13;1.50;;;1.07;;
5805;SDS011;2929;50.810;8.342;2023-04-03T02:07:42;2.70;;;0.90;;
5805;SDS011;2929;50.810;8.342;2023-04-03T02:10:09;3.53;;;1.30;;
5805;SDS011;2929;50.810;8.342;2023-04-03T02:12:36;1.97;;;0.87;;
5805;SDS011;2929;50.810;8.342;2023-04-03T02:15:04;4.13;;;0.93;;
5805;SDS011;2929;50.810;8.342;2023-04-03T02:17:31;2.00;;;0.90;;
5805;SDS011;2929;50.810;8.342;2023-04-03T02:19:58;4.10;;;1.20;;
5805;SDS011;2929;50.810;8.342;2023-04-03T02:22:25;5.30;;;1.20;;
5805;SDS011;2929;50.810;8.342;2023-04-03T02:24:54;2.30;;;1.07;;
5805;SDS011;2929;50.810;8.342;2023-04-03T02:27:21;3.20;;;1.00;;
5805;SDS011;2929;50.810;8.342;2023-04-03T02:29:48;9.83;;;1.00;;
5805;SDS011;2929;50.810;8.342;2023-04-03T02:32:15;2.27;;;1.10;;
5805;SDS011;2929;50.810;8.342;2023-04-03T02:34:43;2.60;;;1.10;;
5805;SDS011;2929;50.810;8.342;2023-04-03T02:37:12;2.87;;;1.03;;
5805;SDS011;2929;50.810;8.342;2023-04-03T02:39:40;2.50;;;1.20;;
5805;SDS011;2929;50.810;8.342;2023-04-03T02:42:09;6.83;;;1.30;;
5805;SDS011;2929;50.810;8.342;2023-04-03T02:44:36;7.90;;;1.40;;
5805;SDS011;2929;50.810;8.342;2023-04-03T02:47:04;6.97;;;1.13;;
5805;SDS011;2929;50.810;8.342;2023-04-03T02:49:32;3.23;;;1.03;;
5805;SDS011;2929;50.810;8.342;2023-04-03T02:51:59;5.70;;;1.33;;
5805;SDS011;2929;50.810;8.342;2023-04-03T02:54:26;3.63;;;1.20;;
5805;SDS011;2929;50.810;8.342;2023-04-03T02:56:58;2.53;;;1.40;;
5805;SDS011;2929;50.810;8.342;2023-04-03T02:59:26;7.03;;;1.40;;
5805;SDS011;2929;50.810;8.342;2023-04-03T03:01:53;4.87;;;1.20;;
5805;SDS011;2929;50.810;8.342;2023-04-03T03:04:21;5.23;;;1.30;;
5805;SDS011;2929;50.810;8.342;2023-04-03T03:06:48;2.17;;;1.10;;
5805;SDS011;2929;50.810;8.342;2023-04-03T03:09:16;3.90;;;1.07;;
5805;SDS011;2929;50.810;8.342;2023-04-03T03:11:43;2.13;;;1.00;;
5805;SDS011;2929;50.810;8.342;2023-04-03T03:14:10;1.37;;;1.10;;
5805;SDS011;2929;50.810;8.342;2023-04-03T03:16:38;1.63;;;1.10;;
5805;SDS011;2929;50.810;8.342;2023-04-03T03:19:05;5.07;;;1.57;;
5805;SDS011;2929;50.810;8.342;2023-04-03T03:21:32;4.60;;;1.30;;
5805;SDS011;2929;50.810;8.342;2023-04-03T03:24:00;4.67;;;1.10;;
5805;SDS011;2929;50.810;8.342;2023-04-03T03:26:27;6.87;;;1.13;;
5805;SDS011;2929;50.810;8.342;2023-04-03T03:28:55;1.90;;;1.57;;
5805;SDS011;2929;50.810;8.342;2023-04-03T03:31:23;1.53;;;1.10;;
5805;SDS011;2929;50.810;8.342;2023-04-03T03:33:51;4.83;;;1.83;;
5805;SDS011;2929;50.810;8.342;2023-04-03T03:36:18;1.90;;;1.17;;
5805;SDS011;2929;50.810;8.342;2023-04-03T03:38:45;1.23;;;0.80;;
5805;SDS011;2929;50.810;8.342;2023-04-03T03:41:12;3.20;;;1.30;;
5805;SDS011;2929;50.810;8.342;2023-04-03T03:43:42;3.80;;;1.70;;
5805;SDS011;2929;50.810;8.342;2023-04-03T03:46:10;2.00;;;1.13;;
5805;SDS011;2929;50.810;8.342;2023-04-03T03:48:37;1.83;;;1.27;;
5805;SDS011;2929;50.810;8.342;2023-04-03T03:51:06;8.50;;;1.80;;
5805;SDS011;2929;50.810;8.342;2023-04-03T03:53:35;3.20;;;1.77;;
5805;SDS011;2929;50.810;8.342;2023-04-03T03:56:06;2.97;;;1.47;;
5805;SDS011;2929;50.810;8.342;2023-04-03T03:58:35;3.73;;;1.40;;
5805;SDS011;2929;50.810;8.342;2023-04-03T04:01:03;11.73;;;1.50;;
5805;SDS011;2929;50.810;8.342;2023-04-03T04:03:31;5.60;;;1.67;;
5805;SDS011;2929;50.810;8.342;2023-04-03T04:05:59;2.17;;;1.20;;
5805;SDS011;2929;50.810;8.342;2023-04-03T04:08:27;9.77;;;1.53;;
5805;SDS011;2929;50.810;8.342;2023-04-03T04:10:54;12.93;;;3.10;;
5805;SDS011;2929;50.810;8.342;2023-04-03T04:13:21;3.93;;;1.50;;
5805;SDS011;2929;50.810;8.342;2023-04-03T04:15:49;3.60;;;1.33;;
5805;SDS011;2929;50.810;8.342;2023-04-03T04:18:16;3.27;;;1.40;;
5805;SDS011;2929;50.810;8.342;2023-04-03T04:20:47;3.33;;;1.30;;
5805;SDS011;2929;50.810;8.342;2023-04-03T04:23:16;8.67;;;2.50;;
5805;SDS011;2929;50.810;8.342;2023-04-03T04:25:46;4.27;;;2.00;;
5805;SDS011;2929;50.810;8.342;2023-04-03T04:28:13;7.27;;;2.30;;
5805;SDS011;2929;50.810;8.342;2023-04-03T04:30:41;9.70;;;2.60;;
5805;SDS011;2929;50.810;8.342;2023-04-03T04:33:09;5.00;;;2.40;;
5805;SDS011;2929;50.810;8.342;2023-04-03T04:35:37;4.23;;;2.20;;
5805;SDS011;2929;50.810;8.342;2023-04-03T04:38:04;5.03;;;1.33;;
5805;SDS011;2929;50.810;8.342;2023-04-03T04:40:32;5.27;;;1.40;;
5805;SDS011;2929;50.810;8.342;2023-04-03T04:43:00;3.27;;;1.27;;
5805;SDS011;2929;50.810;8.342;2023-04-03T04:45:27;7.37;;;1.80;;
5805;SDS011;2929;50.810;8.342;2023-04-03T04:47:55;4.23;;;1.30;;
5805;SDS011;2929;50.810;8.342;2023-04-03T04:50:23;3.83;;;1.90;;
5805;SDS011;2929;50.810;8.342;2023-04-03T04:52:51;2.93;;;1.47;;
5805;SDS011;2929;50.810;8.342;2023-04-03T04:55:18;7.20;;;1.70;;
5805;SDS011;2929;50.810;8.342;2023-04-03T04:57:45;6.37;;;1.70;;
5805;SDS011;2929;50.810;8.342;2023-04-03T05:00:16;5.97;;;1.87;;
5805;SDS011;2929;50.810;8.342;2023-04-03T05:02:44;5.93;;;1.73;;
5805;SDS011;2929;50.810;8.342;2023-04-03T05:05:11;3.43;;;1.80;;
5805;SDS011;2929;50.810;8.342;2023-04-03T05:07:38;3.97;;;1.80;;
5805;SDS011;2929;50.810;8.342;2023-04-03T05:10:07;2.70;;;2.00;;
5805;SDS011;2929;50.810;8.342;2023-04-03T05:12:35;2.20;;;1.47;;
5805;SDS011;2929;50.810;8.342;2023-04-03T05:15:04;10.60;;;2.00;;
5805;SDS011;2929;50.810;8.342;2023-04-03T05:17:34;4.30;;;1.77;;
5805;SDS011;2929;50.810;8.342;2023-04-03T05:20:03;2.13;;;1.60;;
5805;SDS011;2929;50.810;8.342;2023-04-03T05:22:33;18.77;;;7.80;;
5805;SDS011;2929;50.810;8.342;2023-04-03T05:25:05;27.03;;;10.80;;
5805;SDS011;2929;50.810;8.342;2023-04-03T05:27:33;17.83;;;6.80;;
5805;SDS011;2929;50.810;8.342;2023-04-03T05:30:01;7.47;;;2.47;;
5805;SDS011;2929;50.810;8.342;2023-04-03T05:32:30;2.80;;;2.30;;
5805;SDS011;2929;50.810;8.342;2023-04-03T05:35:16;4.37;;;1.70;;
5805;SDS011;2929;50.810;8.342;2023-04-03T05:37:45;5.50;;;2.27;;
5805;SDS011;2929;50.810;8.342;2023-04-03T05:40:14;7.03;;;1.97;;
5805;SDS011;2929;50.810;8.342;2023-04-03T05:42:44;4.47;;;1.30;;
5805;SDS011;2929;50.810;8.342;2023-04-03T05:45:12;7.53;;;2.30;;
5805;SDS011;2929;50.810;8.342;2023-04-03T05:47:39;3.80;;;1.73;;
5805;SDS011;2929;50.810;8.342;2023-04-03T05:50:06;5.77;;;1.53;;
5805;SDS011;2929;50.810;8.342;2023-04-03T05:52:36;4.80;;;1.87;;
5805;SDS011;2929;50.810;8.342;2023-04-03T05:55:07;4.53;;;1.60;;
5805;SDS011;2929;50.810;8.342;2023-04-03T05:57:35;5.73;;;2.63;;
5805;SDS011;2929;50.810;8.342;2023-04-03T06:00:03;8.67;;;1.80;;
5805;SDS011;2929;50.810;8.342;2023-04-03T06:02:39;4.23;;;1.90;;
5805;SDS011;2929;50.810;8.342;2023-04-03T06:05:10;4.90;;;1.87;;
5805;SDS011;2929;50.810;8.342;2023-04-03T06:07:39;5.13;;;1.83;;
5805;SDS011;2929;50.810;8.342;2023-04-03T06:10:10;3.20;;;1.53;;
5805;SDS011;2929;50.810;8.342;2023-04-03T06:12:38;3.73;;;1.67;;
5805;SDS011;2929;50.810;8.342;2023-04-03T06:15:06;10.73;;;1.83;;
5805;SDS011;2929;50.810;8.342;2023-04-03T06:17:35;3.60;;;1.80;;
5805;SDS011;2929;50.810;8.342;2023-04-03T06:20:03;8.53;;;1.80;;
5805;SDS011;2929;50.810;8.342;2023-04-03T06:22:30;3.20;;;1.67;;
5805;SDS011;2929;50.810;8.342;2023-04-03T06:24:59;6.30;;;1.83;;
5805;SDS011;2929;50.810;8.342;2023-04-03T06:27:26;4.20;;;1.40;;
5805;SDS011;2929;50.810;8.342;2023-04-03T06:29:53;6.40;;;1.87;;
5805;SDS011;2929;50.810;8.342;2023-04-03T06:32:20;5.90;;;3.03;;
5805;SDS011;2929;50.810;8.342;2023-04-03T06:34:48;3.00;;;1.30;;
5805;SDS011;2929;50.810;8.342;2023-04-03T06:37:16;5.37;;;1.77;;
5805;SDS011;2929;50.810;8.342;2023-04-03T06:39:44;6.67;;;1.87;;
5805;SDS011;2929;50.810;8.342;2023-04-03T06:42:13;15.13;;;2.13;;
5805;SDS011;2929;50.810;8.342;2023-04-03T06:44:51;11.73;;;1.53;;
5805;SDS011;2929;50.810;8.342;2023-04-03T06:47:18;6.87;;;1.70;;
5805;SDS011;2929;50.810;8.342;2023-04-03T06:49:45;6.57;;;1.77;;
5805;SDS011;2929;50.810;8.342;2023-04-03T06:52:12;7.77;;;1.87;;
5805;SDS011;2929;50.810;8.342;2023-04-03T06:54:40;7.67;;;2.17;;
5805;SDS011;2929;50.810;8.342;2023-04-03T06:57:07;4.87;;;2.30;;
5805;SDS011;2929;50.810;8.342;2023-04-03T06:59:36;8.60;;;2.27;;
5805;SDS011;2929;50.810;8.342;2023-04-03T07:02:03;7.70;;;1.90;;
5805;SDS011;2929;50.810;8.342;2023-04-03T07:04:30;13.63;;;2.73;;
5805;SDS011;2929;50.810;8.342;2023-04-03T07:06:58;8.70;;;1.90;;
5805;SDS011;2929;50.810;8.342;2023-04-03T07:09:25;4.97;;;1.70;;
5805;SDS011;2929;50.810;8.342;2023-04-03T07:11:52;9.30;;;2.60;;
5805;SDS011;2929;50.810;8.342;2023-04-03T07:14:19;10.50;;;2.20;;
5805;SDS011;2929;50.810;8.342;2023-04-03T07:16:48;3.93;;;1.60;;
5805;SDS011;2929;50.810;8.342;2023-04-03T07:19:15;9.70;;;1.83;;
5805;SDS011;2929;50.810;8.342;2023-04-03T07:21:44;2.20;;;1.40;;
5805;SDS011;2929;50.810;8.342;2023-04-03T07:24:11;3.50;;;1.70;;
5805;SDS011;2929;50.810;8.342;2023-04-03T07:26:38;3.47;;;1.77;;
5805;SDS011;2929;50.810;8.342;2023-04-03T07:29:06;4.93;;;2.10;;
5805;SDS011;2929;50.810;8.342;2023-04-03T07:31:33;1.80;;;1.63;;
5805;SDS011;2929;50.810;8.342;2023-04-03T07:34:02;3.70;;;2.00;;
5805;SDS011;2929;50.810;8.342;2023-04-03T07:36:29;6.27;;;1.60;;
5805;SDS011;2929;50.810;8.342;2023-04-03T07:38:58;3.80;;;1.40;;
5805;SDS011;2929;50.810;8.342;2023-04-03T07:41:25;3.70;;;2.00;;
5805;SDS011;2929;50.810;8.342;2023-04-03T07:43:53;5.33;;;2.03;;
5805;SDS011;2929;50.810;8.342;2023-04-03T07:46:21;4.87;;;1.80;;
5805;SDS011;2929;50.810;8.342;2023-04-03T07:48:49;4.30;;;1.50;;
5805;SDS011;2929;50.810;8.342;2023-04-03T07:51:17;10.27;;;2.13;;
5805;SDS011;2929;50.810;8.342;2023-04-03T07:53:44;9.40;;;2.40;;
5805;SDS011;2929;50.810;8.342;2023-04-03T07:56:12;3.43;;;1.70;;
5805;SDS011;2929;50.810;8.342;2023-04-03T07:58:39;2.60;;;1.90;;
5805;SDS011;2929;50.810;8.342;2023-04-03T08:01:06;2.23;;;1.53;;
5805;SDS011;2929;50.810;8.342;2023-04-03T08:03:35;6.13;;;2.57;;
5805;SDS011;2929;50.810;8.342;2023-04-03T08:06:03;5.00;;;1.87;;
5805;SDS011;2929;50.810;8.342;2023-04-03T08:08:33;4.23;;;2.00;;
5805;SDS011;2929;50.810;8.342;2023-04-03T08:11:01;8.33;;;1.97;;
5805;SDS011;2929;50.810;8.342;2023-04-03T08:13:30;3.97;;;1.50;;
5805;SDS011;2929;50.810;8.342;2023-04-03T08:16:06;6.47;;;1.57;;
5805;SDS011;2929;50.810;8.342;2023-04-03T08:18:35;1.50;;;1.40;;
5805;SDS011;2929;50.810;8.342;2023-04-03T08:21:05;7.87;;;1.53;;
5805;SDS011;2929;50.810;8.342;2023-04-03T08:23:35;4.10;;;1.80;;
5805;SDS011;2929;50.810;8.342;2023-04-03T08:26:06;2.10;;;1.20;;
5805;SDS011;2929;50.810;8.342;2023-04-03T08:28:34;4.43;;;1.67;;
5805;SDS011;2929;50.810;8.342;2023-04-03T08:31:02;3.53;;;1.67;;
5805;SDS011;2929;50.810;8.342;2023-04-03T08:33:32;6.60;;;2.10;;
5805;SDS011;2929;50.810;8.342;2023-04-03T08:36:01;2.20;;;1.40;;
5805;SDS011;2929;50.810;8.342;2023-04-03T08:38:29;3.97;;;1.63;;
5805;SDS011;2929;50.810;8.342;2023-04-03T08:41:04;4.70;;;1.73;;
5805;SDS011;2929;50.810;8.342;2023-04-03T08:43:39;5.90;;;1.87;;
5805;SDS011;2929;50.810;8.342;2023-04-03T08:46:19;4.23;;;1.63;;
5805;SDS011;2929;50.810;8.342;2023-04-03T08:48:52;3.73;;;1.43;;
5805;SDS011;2929;50.810;8.342;2023-04-03T08:51:20;1.60;;;1.23;;
5805;SDS011;2929;50.810;8.342;2023-04-03T08:53:52;7.73;;;1.63;;
5805;SDS011;2929;50.810;8.342;2023-04-03T08:56:24;3.70;;;1.60;;
5805;SDS011;2929;50.810;8.342;2023-04-03T08:58:55;3.43;;;1.70;;
5805;SDS011;2929;50.810;8.342;2023-04-03T09:01:25;5.20;;;1.80;;
5805;SDS011;2929;50.810;8.342;2023-04-03T09:03:56;3.83;;;1.33;;
5805;SDS011;2929;50.810;8.342;2023-04-03T09:06:23;2.63;;;1.10;;
5805;SDS011;2929;50.810;8.342;2023-04-03T09:08:58;5.37;;;1.60;;
5805;SDS011;2929;50.810;8.342;2023-04-03T09:11:40;3.53;;;1.20;;
5805;SDS011;2929;50.810;8.342;2023-04-03T09:14:19;4.70;;;1.63;;
5805;SDS011;2929;50.810;8.342;2023-04-03T09:16:52;5.37;;;1.70;;
5805;SDS011;2929;50.810;8.342;2023-04-03T09:19:24;7.20;;;1.83;;
5805;SDS011;2929;50.810;8.342;2023-04-03T09:22:02;2.37;;;1.47;;
5805;SDS011;2929;50.810;8.342;2023-04-03T09:24:41;2.73;;;1.73;;
5805;SDS011;2929;50.810;8.342;2023-04-03T09:27:11;6.90;;;1.80;;
5805;SDS011;2929;50.810;8.342;2023-04-03T09:29:39;2.37;;;1.27;;
5805;SDS011;2929;50.810;8.342;2023-04-03T09:32:25;6.73;;;1.60;;
5805;SDS011;2929;50.810;8.342;2023-04-03T09:34:53;3.83;;;1.40;;
5805;SDS011;2929;50.810;8.342;2023-04-03T09:37:33;2.93;;;1.17;;
5805;SDS011;2929;50.810;8.342;2023-04-03T09:40:06;2.93;;;1.13;;
5805;SDS011;2929;50.810;8.342;2023-04-03T09:43:04;1.57;;;1.47;;
5805;SDS011;2929;50.810;8.342;2023-04-03T09:45:48;2.03;;;1.40;;
5805;SDS011;2929;50.810;8.342;2023-04-03T09:48:17;2.20;;;1.60;;
5805;SDS011;2929;50.810;8.342;2023-04-03T09:50:53;3.27;;;1.37;;
5805;SDS011;2929;50.810;8.342;2023-04-03T09:53:31;8.10;;;1.50;;
5805;SDS011;2929;50.810;8.342;2023-04-03T09:56:02;5.70;;;2.67;;
5805;SDS011;2929;50.810;8.342;2023-04-03T09:58:36;2.40;;;1.97;;
5805;SDS011;2929;50.810;8.342;2023-04-03T10:01:05;3.30;;;1.37;;
5805;SDS011;2929;50.810;8.342;2023-04-03T10:03:46;5.23;;;1.40;;
5805;SDS011;2929;50.810;8.342;2023-04-03T10:06:30;4.37;;;1.77;;
5805;SDS011;2929;50.810;8.342;2023-04-03T10:09:01;5.70;;;1.87;;
5805;SDS011;2929;50.810;8.342;2023-04-03T10:11:30;3.50;;;1.67;;
5805;SDS011;2929;50.810;8.342;2023-04-03T10:13:59;2.10;;;1.43;;
5805;SDS011;2929;50.810;8.342;2023-04-03T10:16:29;4.07;;;1.50;;
5805;SDS011;2929;50.810;8.342;2023-04-03T10:19:07;3.83;;;1.60;;
5805;SDS011;2929;50.810;8.342;2023-04-03T10:21:44;2.33;;;1.50;;
5805;SDS011;2929;50.810;8.342;2023-04-03T10:24:16;3.20;;;1.30;;
5805;SDS011;2929;50.810;8.342;2023-04-03T10:26:50;5.00;;;1.40;;
5805;SDS011;2929;50.810;8.342;2023-04-03T10:29:30;10.93;;;1.53;;
5805;SDS011;2929;50.810;8.342;2023-04-03T10:32:13;1.60;;;1.40;;
5805;SDS011;2929;50.810;8.342;2023-04-03T10:34:54;2.00;;;1.03;;
5805;SDS011;2929;50.810;8.342;2023-04-03T10:37:29;1.57;;;0.90;;
5805;SDS011;2929;50.810;8.342;2023-04-03T10:40:04;1.90;;;1.07;;
5805;SDS011;2929;50.810;8.342;2023-04-03T10:42:38;2.80;;;1.23;;
5805;SDS011;2929;50.810;8.342;2023-04-03T10:45:20;3.90;;;1.40;;
5805;SDS011;2929;50.810;8.342;2023-04-03T10:47:56;4.10;;;1.13;;
5805;SDS011;2929;50.810;8.342;2023-04-03T10:50:34;1.33;;;1.10;;
5805;SDS011;2929;50.810;8.342;2023-04-03T10:53:11;1.43;;;0.83;;
5805;SDS011;2929;50.810;8.342;2023-04-03T10:55:46;1.43;;;1.33;;
5805;SDS011;2929;50.810;8.342;2023-04-03T10:58:21;1.37;;;0.93;;
5805;SDS011;2929;50.810;8.342;2023-04-03T11:00:56;1.57;;;0.90;;
5805;SDS011;2929;50.810;8.342;2023-04-03T11:03:29;2.20;;;1.43;;
5805;SDS011;2929;50.810;8.342;2023-04-03T11:05:59;1.60;;;1.10;;
5805;SDS011;2929;50.810;8.342;2023-04-03T11:08:30;1.43;;;1.10;;
5805;SDS011;2929;50.810;8.342;2023-04-03T11:11:04;7.57;;;1.40;;
5805;SDS011;2929;50.810;8.342;2023-04-03T11:13:35;2.83;;;1.33;;
5805;SDS011;2929;50.810;8.342;2023-04-03T11:16:09;3.10;;;1.37;;
5805;SDS011;2929;50.810;8.342;2023-04-03T11:18:46;1.70;;;1.20;;
5805;SDS011;2929;50.810;8.342;2023-04-03T11:21:17;1.60;;;1.10;;
5805;SDS011;2929;50.810;8.342;2023-04-03T11:23:48;3.63;;;1.20;;
5805;SDS011;2929;50.810;8.342;2023-04-03T11:26:18;3.70;;;1.13;;
5805;SDS011;2929;50.810;8.342;2023-04-03T11:28:47;3.83;;;1.40;;
5805;SDS011;2929;50.810;8.342;2023-04-03T11:31:26;2.83;;;1.37;;
5805;SDS011;2929;50.810;8.342;2023-04-03T11:34:13;2.73;;;1.13;;
5805;SDS011;2929;50.810;8.342;2023-04-03T11:36:52;4.83;;;1.20;;
5805;SDS011;2929;50.810;8.342;2023-04-03T11:39:22;1.47;;;1.03;;
5805;SDS011;2929;50.810;8.342;2023-04-03T11:41:51;2.73;;;1.57;;
5805;SDS011;2929;50.810;8.342;2023-04-03T11:44:28;3.23;;;1.23;;
5805;SDS011;2929;50.810;8.342;2023-04-03T11:47:01;4.50;;;1.10;;
5805;SDS011;2929;50.810;8.342;2023-04-03T11:55:44;2.27;;;1.20;;
5805;SDS011;2929;50.810;8.342;2023-04-03T11:58:19;3.03;;;1.13;;
5805;SDS011;2929;50.810;8.342;2023-04-03T12:00:55;9.77;;;1.70;;
5805;SDS011;2929;50.810;8.342;2023-04-03T12:12:56;2.40;;;1.10;;
5805;SDS011;2929;50.810;8.342;2023-04-03T12:21:25;1.37;;;0.90;;
5805;SDS011;2929;50.810;8.342;2023-04-03T12:24:35;4.47;;;1.33;;
5805;SDS011;2929;50.810;8.342;2023-04-03T12:27:13;3.63;;;1.00;;
5805;SDS011;2929;50.810;8.342;2023-04-03T12:29:50;2.03;;;1.20;;
5805;SDS011;2929;50.810;8.342;2023-04-03T12:32:34;4.00;;;1.20;;
5805;SDS011;2929;50.810;8.342;2023-04-03T12:35:19;3.33;;;1.10;;
5805;SDS011;2929;50.810;8.342;2023-04-03T12:37:54;9.37;;;1.50;;
5805;SDS011;2929;50.810;8.342;2023-04-03T12:40:47;1.33;;;1.10;;
5805;SDS011;2929;50.810;8.342;2023-04-03T12:43:22;7.50;;;1.53;;
5805;SDS011;2929;50.810;8.342;2023-04-03T12:46:09;2.17;;;1.10;;
5805;SDS011;2929;50.810;8.342;2023-04-03T12:48:46;2.87;;;1.70;;
5805;SDS011;2929;50.810;8.342;2023-04-03T12:51:15;2.00;;;1.10;;
5805;SDS011;2929;50.810;8.342;2023-04-03T12:53:47;1.40;;;0.87;;
5805;SDS011;2929;50.810;8.342;2023-04-03T12:56:20;1.60;;;1.10;;
5805;SDS011;2929;50.810;8.342;2023-04-03T12:58:49;2.93;;;0.83;;
5805;SDS011;2929;50.810;8.342;2023-04-03T13:01:18;1.10;;;1.00;;
5805;SDS011;2929;50.810;8.342;2023-04-03T13:03:48;2.10;;;1.20;;
5805;SDS011;2929;50.810;8.342;2023-04-03T13:06:18;4.80;;;1.37;;
5805;SDS011;2929;50.810;8.342;2023-04-03T13:08:53;4.80;;;1.30;;
5805;SDS011;2929;50.810;8.342;2023-04-03T13:11:24;1.80;;;1.00;;
5805;SDS011;2929;50.810;8.342;2023-04-03T13:13:54;1.07;;;1.00;;
5805;SDS011;2929;50.810;8.342;2023-04-03T13:16:22;2.60;;;1.57;;
5805;SDS011;2929;50.810;8.342;2023-04-03T13:18:50;5.80;;;1.13;;
5805;SDS011;2929;50.810;8.342;2023-04-03T13:21:19;24.70;;;1.77;;
5805;SDS011;2929;50.810;8.342;2023-04-03T13:23:50;4.20;;;1.30;;
5805;SDS011;2929;50.810;8.342;2023-04-03T13:26:21;9.87;;;2.10;;
5805;SDS011;2929;50.810;8.342;2023-04-03T13:28:51;5.33;;;1.23;;
5805;SDS011;2929;50.810;8.342;2023-04-03T13:31:21;5.13;;;0.90;;
5805;SDS011;2929;50.810;8.342;2023-04-03T13:33:54;2.37;;;1.23;;
5805;SDS011;2929;50.810;8.342;2023-04-03T13:36:24;3.60;;;0.90;;
5805;SDS011;2929;50.810;8.342;2023-04-03T13:39:02;2.40;;;1.00;;
5805;SDS011;2929;50.810;8.342;2023-04-03T13:41:31;2.30;;;1.00;;
5805;SDS011;2929;50.810;8.342;2023-04-03T13:44:17;1.60;;;1.00;;
5805;SDS011;2929;50.810;8.342;2023-04-03T13:46:52;2.33;;;1.17;;
5805;SDS011;2929;50.810;8.342;2023-04-03T13:49:22;3.87;;;1.17;;
5805;SDS011;2929;50.810;8.342;2023-04-03T13:51:57;5.50;;;1.20;;
5805;SDS011;2929;50.810;8.342;2023-04-03T13:54:28;2.40;;;0.97;;
5805;SDS011;2929;50.810;8.342;2023-04-03T13:56:58;4.10;;;1.33;;
5805;SDS011;2929;50.810;8.342;2023-04-03T13:59:27;2.73;;;1.10;;
5805;SDS011;2929;50.810;8.342;2023-04-03T14:02:06;3.57;;;1.10;;
5805;SDS011;2929;50.810;8.342;2023-04-03T14:04:51;2.03;;;0.97;;
5805;SDS011;2929;50.810;8.342;2023-04-03T14:07:21;3.53;;;1.20;;
5805;SDS011;2929;50.810;8.342;2023-04-03T14:09:50;10.70;;;1.17;;
5805;SDS011;2929;50.810;8.342;2023-04-03T14:12:18;5.70;;;1.53;;
5805;SDS011;2929;50.810;8.342;2023-04-03T14:14:50;1.37;;;1.07;;
5805;SDS011;2929;50.810;8.342;2023-04-03T14:17:18;2.77;;;1.30;;
5805;SDS011;2929;50.810;8.342;2023-04-03T14:19:47;1.43;;;1.07;;
5805;SDS011;2929;50.810;8.342;2023-04-03T14:22:16;1.43;;;1.00;;
5805;SDS011;2929;50.810;8.342;2023-04-03T14:24:46;1.40;;;1.20;;
5805;SDS011;2929;50.810;8.342;2023-04-03T14:27:17;5.30;;;1.10;;
5805;SDS011;2929;50.810;8.342;2023-04-03T14:29:47;2.63;;;0.90;;
5805;SDS011;2929;50.810;8.342;2023-04-03T14:32:16;3.30;;;1.03;;
5805;SDS011;2929;50.810;8.342;2023-04-03T14:34:44;1.60;;;1.10;;
5805;SDS011;2929;50.810;8.342;2023-04-03T14:37:12;2.40;;;0.80;;
5805;SDS011;2929;50.810;8.342;2023-04-03T14:39:40;2.90;;;1.10;;
5805;SDS011;2929;50.810;8.342;2023-04-03T14:42:11;2.23;;;1.33;;
5805;SDS011;2929;50.810;8.342;2023-04-03T14:44:40;1.87;;;1.40;;
5805;SDS011;2929;50.810;8.342;2023-04-03T14:47:09;1.20;;;1.00;;
5805;SDS011;2929;50.810;8.342;2023-04-03T14:49:37;1.30;;;1.00;;
5805;SDS011;2929;50.810;8.342;2023-04-03T14:52:05;1.67;;;1.00;;
5805;SDS011;2929;50.810;8.342;2023-04-03T14:54:32;3.37;;;1.00;;
5805;SDS011;2929;50.810;8.342;2023-04-03T14:56:59;5.47;;;1.00;;
5805;SDS011;2929;50.810;8.342;2023-04-03T14:59:28;0.93;;;0.83;;
5805;SDS011;2929;50.810;8.342;2023-04-03T15:01:58;1.87;;;1.20;;
5805;SDS011;2929;50.810;8.342;2023-04-03T15:04:25;2.20;;;1.20;;
5805;SDS011;2929;50.810;8.342;2023-04-03T15:06:53;2.07;;;1.00;;
5805;SDS011;2929;50.810;8.342;2023-04-03T15:09:20;2.43;;;1.10;;
5805;SDS011;2929;50.810;8.342;2023-04-03T15:11:50;1.70;;;0.90;;
5805;SDS011;2929;50.810;8.342;2023-04-03T15:14:18;4.30;;;1.00;;
5805;SDS011;2929;50.810;8.342;2023-04-03T15:16:45;1.73;;;1.00;;
5805;SDS011;2929;50.810;8.342;2023-04-03T15:19:14;1.23;;;1.00;;
5805;SDS011;2929;50.810;8.342;2023-04-03T15:21:41;1.73;;;1.07;;
5805;SDS011;2929;50.810;8.342;2023-04-03T15:24:08;2.90;;;1.37;;
5805;SDS011;2929;50.810;8.342;2023-04-03T15:26:36;4.43;;;1.00;;
5805;SDS011;2929;50.810;8.342;2023-04-03T15:29:03;3.60;;;1.03;;
5805;SDS011;2929;50.810;8.342;2023-04-03T15:31:31;2.83;;;1.40;;
5805;SDS011;2929;50.810;8.342;2023-04-03T15:33:58;6.53;;;1.27;;
5805;SDS011;2929;50.810;8.342;2023-04-03T15:36:27;2.50;;;1.30;;
5805;SDS011;2929;50.810;8.342;2023-04-03T15:38:55;6.77;;;1.13;;
5805;SDS011;2929;50.810;8.342;2023-04-03T15:41:22;2.53;;;1.33;;
5805;SDS011;2929;50.810;8.342;2023-04-03T15:43:49;3.40;;;1.50;;
5805;SDS011;2929;50.810;8.342;2023-04-03T15:46:17;5.47;;;1.30;;
5805;SDS011;2929;50.810;8.342;2023-04-03T15:48:44;4.80;;;1.40;;
5805;SDS011;2929;50.810;8.342;2023-04-03T15:51:11;5.60;;;1.57;;
5805;SDS011;2929;50.810;8.342;2023-04-03T15:53:40;5.07;;;1.70;;
5805;SDS011;2929;50.810;8.342;2023-04-03T15:56:07;2.63;;;1.57;;